< < Back
Terminal Aerodrome Forecast


Current Version              Previous Versions:   1  2  3  4  5  6  7  8  9  

Terminal Aerodrome Forecast

405
FTUS44 KBMX 072326
TAFBHM
TAF
KBHM 072326Z 0800/0824 23007KT P6SM SCT250
     FM080200 20003KT P6SM SCT250
     FM081500 24008KT P6SM SCT030 SCT250=

Latest METAR

344
SAUS70 KWBC 080400 RRA
MTRBHM
METAR KBHM 080353Z 19007KT 10SM CLR 28/23 A3017 RMK AO2 SLP207
T02780228


USA.gov is the U.S. government's official web portal to all federal, state and local government web resources and services.